Time;durP1;ratioP1;P1;durP2;ratioP2;P2;SDS_P1;SDS_P2;PMS_P1;PMS_P2;Temp;Humidity;BMP_temperature;BMP_pressure;BME280_temperature;BME280_humidity;BME280_pressure;Samples;Min_cycle;Max_cycle;Signal;HPM_P1;HPM_P2
2021/07/14 00:04:57;;;;;;;7.37;2.70;;;;;;;16.12;100.00;98509.56;10414771;28;20183;-82
2021/07/14 00:10:27;;;;;;;3.20;2.90;;;;;;;16.16;100.00;98503.91;10456903;28;20172;-81
2021/07/14 00:26:54;;;;;;;6.63;2.60;;;;;;;16.27;100.00;98496.00;10454611;28;20188;-88
2021/07/14 00:32:13;;;;;;;3.70;2.80;;;;;;;16.23;100.00;98490.56;10456673;28;20176;-88
2021/07/14 00:37:32;;;;;;;2.73;2.53;;;;;;;16.18;100.00;98498.69;10417812;28;20298;-88
2021/07/14 00:42:51;;;;;;;4.63;2.63;;;;;;;16.17;100.00;98514.56;10414278;28;20176;-84
2021/07/14 00:48:10;;;;;;;3.23;2.70;;;;;;;16.33;100.00;98505.31;10415671;28;20188;-81
2021/07/14 00:53:29;;;;;;;3.10;2.90;;;;;;;16.27;100.00;98504.31;10415067;28;20203;-82
2021/07/14 00:58:48;;;;;;;5.47;2.73;;;;;;;16.27;100.00;98515.41;10399470;28;20176;-84
2021/07/14 01:04:15;;;;;;;2.80;2.60;;;;;;;16.15;100.00;98525.34;10423905;28;20187;-86
2021/07/14 01:09:40;;;;;;;5.90;3.57;;;;;;;16.15;100.00;98521.81;10461875;28;20594;-84
2021/07/14 01:15:13;;;;;;;3.30;3.00;;;;;;;16.12;100.00;98494.94;10447214;28;20215;-84
2021/07/14 01:20:54;;;;;;;10.07;3.47;;;;;;;16.10;100.00;98500.16;10461764;28;20576;-82
2021/07/14 01:26:23;;;;;;;7.60;3.67;;;;;;;16.11;100.00;98496.16;10460446;28;20195;-85
2021/07/14 01:31:45;;;;;;;3.30;3.10;;;;;;;16.09;100.00;98484.72;10447254;28;20223;-87
2021/07/14 01:37:06;;;;;;;6.30;3.70;;;;;;;16.01;100.00;98472.34;10462449;28;20199;-82
2021/07/14 01:42:29;;;;;;;3.97;3.73;;;;;;;16.00;100.00;98473.56;10467974;28;20563;-87
2021/07/14 01:47:49;;;;;;;6.23;4.23;;;;;;;15.88;100.00;98482.72;10462396;28;20179;-88
2021/07/14 01:53:10;;;;;;;4.60;3.60;;;;;;;15.83;100.00;98463.84;10436942;28;20659;-84
2021/07/14 01:58:30;;;;;;;6.20;3.77;;;;;;;15.90;100.00;98476.69;10419381;28;20187;-86
2021/07/14 02:09:38;;;;;;;15.53;3.30;;;;;;;15.81;100.00;98460.78;10399554;28;20188;-84
2021/07/14 02:15:01;;;;;;;4.27;3.87;;;;;;;15.77;100.00;98468.41;10418352;28;20203;-84
2021/07/14 02:20:21;;;;;;;13.40;4.23;;;;;;;15.88;100.00;98496.56;10420059;28;20578;-85
2021/07/14 02:25:40;;;;;;;8.40;3.87;;;;;;;15.76;100.00;98514.00;10449599;28;20246;-81
2021/07/14 02:30:59;;;;;;;4.23;3.83;;;;;;;15.76;100.00;98505.69;10460221;28;20215;-84
2021/07/14 02:36:20;;;;;;;4.47;4.07;;;;;;;15.76;100.00;98529.88;10444985;28;20744;-88
2021/07/14 02:41:47;;;;;;;8.40;4.67;;;;;;;15.73;100.00;98531.56;10459445;28;20167;-80
2021/07/14 02:47:09;;;;;;;6.50;5.17;;;;;;;15.78;100.00;98535.78;10460346;28;20179;-82
2021/07/14 02:52:29;;;;;;;4.90;4.30;;;;;;;15.83;100.00;98543.53;10455550;28;20641;-80
2021/07/14 02:57:51;;;;;;;5.30;4.43;;;;;;;15.73;100.00;98539.09;10416836;28;20211;-85
2021/07/14 03:03:11;;;;;;;11.23;4.57;;;;;;;15.60;100.00;98528.00;10418187;28;20622;-83
2021/07/14 03:08:31;;;;;;;5.13;4.60;;;;;;;15.48;100.00;98501.09;10418872;28;20180;-90
2021/07/14 03:13:51;;;;;;;4.73;4.33;;;;;;;15.39;100.00;98494.66;10401059;28;20200;-80
2021/07/14 03:19:12;;;;;;;13.87;4.03;;;;;;;15.42;100.00;98486.25;10417171;28;20251;-81
2021/07/14 03:24:33;;;;;;;6.63;4.27;;;;;;;15.42;100.00;98477.16;10439530;28;20684;-82
2021/07/14 03:29:53;;;;;;;8.03;4.60;;;;;;;15.36;100.00;98479.69;10461277;28;20227;-80
2021/07/14 03:35:14;;;;;;;4.47;4.17;;;;;;;15.24;100.00;98474.97;10447081;28;20203;-82
2021/07/14 03:40:34;;;;;;;4.50;4.00;;;;;;;15.26;100.00;98483.63;10457684;28;20262;-84
2021/07/14 03:45:55;;;;;;;6.50;4.20;;;;;;;15.34;100.00;98482.16;10458411;28;20214;-80
2021/07/14 03:51:17;;;;;;;6.47;4.70;;;;;;;15.28;100.00;98492.22;10440349;28;20188;-82
2021/07/14 03:56:36;;;;;;;5.70;4.53;;;;;;;15.32;100.00;98517.06;10434972;28;20206;-80
2021/07/14 04:01:56;;;;;;;4.83;4.33;;;;;;;15.32;100.00;98528.94;10456969;28;20202;-85
2021/07/14 04:07:22;;;;;;;6.60;4.47;;;;;;;15.29;100.00;98535.34;10456656;28;20560;-80
2021/07/14 04:12:41;;;;;;;4.70;4.30;;;;;;;15.27;100.00;98537.78;10456070;28;20172;-87
2021/07/14 04:18:00;;;;;;;4.90;4.40;;;;;;;15.30;100.00;98523.06;10471734;28;20215;-84
2021/07/14 04:23:19;;;;;;;5.50;5.00;;;;;;;15.23;100.00;98517.75;10450309;28;20283;-82
2021/07/14 04:28:39;;;;;;;4.43;4.03;;;;;;;15.25;100.00;98515.31;10462188;28;20219;-81
2021/07/14 04:34:04;;;;;;;4.47;4.17;;;;;;;15.34;100.00;98509.09;10473546;28;20202;-81
2021/07/14 04:39:23;;;;;;;4.70;4.30;;;;;;;15.46;100.00;98505.53;10476262;28;20239;-80
2021/07/14 04:44:50;;;;;;;11.20;4.57;;;;;;;15.58;100.00;98505.53;10466949;28;20203;-86
2021/07/14 04:50:10;;;;;;;4.53;4.13;;;;;;;15.72;100.00;98518.13;10453631;28;20188;-88
2021/07/14 04:55:29;;;;;;;5.10;4.60;;;;;;;15.79;100.00;98517.91;10469746;28;20657;-85
2021/07/14 05:00:48;;;;;;;5.43;5.03;;;;;;;15.87;100.00;98528.31;10464084;28;20167;-86
2021/07/14 05:06:07;;;;;;;4.93;4.63;;;;;;;15.96;100.00;98514.53;10458829;28;20175;-83
2021/07/14 05:11:26;;;;;;;8.30;5.03;;;;;;;15.94;100.00;98518.97;10458594;28;20223;-83
2021/07/14 05:16:45;;;;;;;11.10;5.63;;;;;;;16.00;100.00;98509.63;10461120;28;20207;-81
2021/07/14 05:22:04;;;;;;;11.30;6.80;;;;;;;15.93;100.00;98515.41;10453912;28;20677;-85
2021/07/14 05:27:22;;;;;;;7.30;6.70;;;;;;;16.03;100.00;98536.47;10442271;28;20227;-87
2021/07/14 05:32:42;;;;;;;6.53;5.97;;;;;;;16.12;100.00;98534.56;10467230;28;20528;-85
2021/07/14 05:38:01;;;;;;;9.10;6.30;;;;;;;16.27;100.00;98540.41;10437301;28;20677;-85
2021/07/14 05:43:20;;;;;;;8.07;6.20;;;;;;;16.29;100.00;98546.31;10420181;28;20236;-83
2021/07/14 05:48:39;;;;;;;7.67;6.97;;;;;;;16.33;100.00;98547.75;10410728;28;20176;-86
2021/07/14 05:54:00;;;;;;;7.17;6.67;;;;;;;16.36;100.00;98557.94;10425116;28;20211;-82
2021/07/14 05:59:19;;;;;;;7.53;6.93;;;;;;;16.28;100.00;98537.16;10426465;28;20173;-80
2021/07/14 06:04:38;;;;;;;6.63;6.00;;;;;;;16.26;100.00;98541.63;10426922;28;20191;-81
2021/07/14 06:09:58;;;;;;;6.87;6.23;;;;;;;16.11;100.00;98532.25;10423871;28;20673;-80
2021/07/14 06:15:17;;;;;;;5.80;5.40;;;;;;;16.19;100.00;98520.44;10428368;28;20228;-83
2021/07/14 06:20:36;;;;;;;8.57;5.60;;;;;;;16.21;100.00;98501.34;10423483;28;20180;-83
2021/07/14 06:25:55;;;;;;;8.47;4.80;;;;;;;16.21;100.00;98503.34;10419287;28;20176;-87
2021/07/14 06:31:14;;;;;;;4.47;4.03;;;;;;;16.21;100.00;98533.88;10368438;28;1129127;-84
2021/07/14 06:36:33;;;;;;;5.70;3.80;;;;;;;16.25;100.00;98537.28;10452470;28;20653;-83
2021/07/14 06:41:53;;;;;;;3.40;3.10;;;;;;;16.31;100.00;98543.88;10436535;28;20681;-84
2021/07/14 06:47:13;;;;;;;4.33;3.30;;;;;;;16.21;100.00;98522.78;10424253;28;20176;-80
2021/07/14 06:52:32;;;;;;;3.43;3.23;;;;;;;16.21;100.00;98511.69;10418676;28;20207;-82
2021/07/14 06:57:51;;;;;;;4.10;3.80;;;;;;;16.16;100.00;98515.00;10417332;28;20264;-83
2021/07/14 07:03:10;;;;;;;7.00;3.30;;;;;;;16.22;100.00;98527.09;10431518;28;20191;-81
2021/07/14 07:08:29;;;;;;;6.23;5.10;;;;;;;16.17;100.00;98516.56;10449774;28;20183;-81
2021/07/14 07:13:48;;;;;;;4.70;4.30;;;;;;;16.18;100.00;98516.13;10457810;28;20191;-81
2021/07/14 07:19:07;;;;;;;5.37;4.97;;;;;;;16.31;100.00;98516.88;10443709;28;20163;-85
2021/07/14 07:24:26;;;;;;;6.40;5.80;;;;;;;16.27;100.00;98516.22;10458789;28;20673;-84
2021/07/14 07:29:45;;;;;;;9.57;8.23;;;;;;;16.23;100.00;98492.56;10456618;28;20596;-82
2021/07/14 07:35:05;;;;;;;7.37;6.77;;;;;;;16.31;100.00;98468.94;10416449;28;20678;-82
2021/07/14 07:40:24;;;;;;;6.00;5.60;;;;;;;16.21;100.00;98470.03;10401939;28;20622;-80
2021/07/14 07:45:44;;;;;;;5.70;5.13;;;;;;;16.20;100.00;98483.13;10415719;28;20255;-91
2021/07/14 07:51:08;;;;;;;5.20;4.90;;;;;;;16.36;100.00;98485.00;10415990;28;20172;-83
2021/07/14 07:56:29;;;;;;;5.07;4.67;;;;;;;16.45;100.00;98510.03;10427333;28;20212;-82
2021/07/14 08:01:48;;;;;;;5.53;5.13;;;;;;;16.42;100.00;98535.91;10451585;28;20190;-81
2021/07/14 08:07:07;;;;;;;5.90;5.30;;;;;;;16.37;100.00;98553.94;10456229;28;20187;-80
2021/07/14 08:12:26;;;;;;;5.50;5.20;;;;;;;16.33;100.00;98546.94;10432363;28;20175;-81
2021/07/14 08:17:45;;;;;;;5.23;4.90;;;;;;;16.40;100.00;98555.03;10411734;28;20211;-85
2021/07/14 08:23:04;;;;;;;5.67;5.27;;;;;;;16.41;100.00;98551.03;10456112;28;20203;-80
2021/07/14 08:28:23;;;;;;;9.40;5.40;;;;;;;16.46;100.00;98547.69;10454956;28;20627;-79
2021/07/14 08:33:42;;;;;;;5.33;4.93;;;;;;;16.43;100.00;98570.78;10431269;28;20461;-82
2021/07/14 08:39:04;;;;;;;6.57;6.00;;;;;;;16.45;100.00;98573.91;10403512;28;20176;-80
2021/07/14 08:44:24;;;;;;;8.53;7.67;;;;;;;16.52;100.00;98568.84;10420614;28;20266;-88
2021/07/14 08:49:48;;;;;;;7.47;6.90;;;;;;;16.50;100.00;98570.53;10415573;28;20628;-90
2021/07/14 08:55:08;;;;;;;8.13;7.30;;;;;;;16.44;100.00;98575.13;10414141;28;20216;-83
2021/07/14 09:00:28;;;;;;;8.83;7.80;;;;;;;16.25;100.00;98584.47;10398025;28;20188;-86
2021/07/14 09:05:47;;;;;;;11.50;8.57;;;;;;;16.23;100.00;98589.72;10454878;28;20184;-87
2021/07/14 09:11:07;;;;;;;11.13;9.33;;;;;;;16.19;100.00;98594.59;10434194;28;20216;-85
2021/07/14 09:16:37;;;;;;;11.67;8.60;;;;;;;16.25;100.00;98581.69;10416579;28;20203;-84
2021/07/14 09:21:58;;;;;;;10.30;9.20;;;;;;;16.09;100.00;98579.06;10416200;28;20266;-82
2021/07/14 09:27:27;;;;;;;10.97;9.90;;;;;;;15.99;100.00;98575.44;10413116;28;20223;-83
2021/07/14 09:32:49;;;;;;;11.57;9.77;;;;;;;15.89;100.00;98573.03;10422015;28;20184;-82
2021/07/14 09:38:08;;;;;;;12.97;11.63;;;;;;;15.81;100.00;98565.38;10422854;28;20203;-80
2021/07/14 09:43:29;;;;;;;16.90;12.13;;;;;;;15.77;100.00;98576.59;10427919;28;20216;-85
2021/07/14 09:48:50;;;;;;;20.40;12.03;;;;;;;15.93;100.00;98568.13;10405482;28;20218;-82
2021/07/14 09:54:11;;;;;;;17.80;11.73;;;;;;;16.04;100.00;98563.00;10420156;28;20231;-85
2021/07/14 09:59:30;;;;;;;11.83;10.60;;;;;;;16.32;100.00;98573.94;10419012;28;20214;-85
2021/07/14 10:04:49;;;;;;;14.73;10.20;;;;;;;16.49;100.00;98582.88;10460351;28;20184;-88
2021/07/14 10:10:12;;;;;;;12.17;10.10;;;;;;;16.45;100.00;98590.56;10435662;28;20191;-83
2021/07/14 10:15:31;;;;;;;10.53;9.53;;;;;;;16.85;100.00;98604.16;10418196;28;20207;-85
2021/07/14 10:20:51;;;;;;;9.43;8.53;;;;;;;16.86;100.00;98624.38;10419270;28;20669;-87
2021/07/14 10:26:10;;;;;;;9.40;8.50;;;;;;;17.13;100.00;98621.78;10402837;28;20602;-85
2021/07/14 10:31:30;;;;;;;10.53;7.60;;;;;;;17.09;100.00;98621.94;10431201;28;20219;-87
2021/07/14 10:36:51;;;;;;;8.90;7.70;;;;;;;17.12;100.00;98632.13;10459637;28;20203;-87
2021/07/14 10:42:10;;;;;;;8.60;7.90;;;;;;;17.01;100.00;98645.66;10430870;28;20184;-85
2021/07/14 10:47:30;;;;;;;8.00;7.37;;;;;;;17.01;100.00;98656.75;10403225;28;20172;-86
2021/07/14 10:52:49;;;;;;;7.97;7.27;;;;;;;17.09;100.00;98663.63;10455244;28;20211;-83
2021/07/14 10:58:11;;;;;;;9.70;8.73;;;;;;;17.13;100.00;98661.47;10451599;28;20222;-84
2021/07/14 11:03:40;;;;;;;8.50;7.70;;;;;;;17.29;100.00;98652.97;10455492;28;20704;-85
2021/07/14 11:08:59;;;;;;;10.80;7.07;;;;;;;17.34;100.00;98648.81;10441219;28;20630;-84
2021/07/14 11:14:39;;;;;;;6.93;6.43;;;;;;;17.65;100.00;98645.59;10449082;28;20668;-84
2021/07/14 11:20:14;;;;;;;7.43;6.83;;;;;;;18.80;100.00;98643.59;10442552;28;20227;-87
2021/07/14 11:25:32;;;;;;;5.10;4.70;;;;;;;19.13;100.00;98652.91;10435007;28;20219;-85
2021/07/14 11:30:53;;;;;;;5.83;5.17;;;;;;;18.61;100.00;98644.81;10412958;28;20216;-85
2021/07/14 11:36:13;;;;;;;3.77;3.57;;;;;;;18.64;100.00;98640.34;10413229;28;20207;-84
2021/07/14 11:41:34;;;;;;;4.73;4.33;;;;;;;18.24;100.00;98633.31;10391156;28;20184;-85
2021/07/14 11:46:54;;;;;;;4.30;4.00;;;;;;;18.01;100.00;98628.28;10411201;28;20216;-84
2021/07/14 11:52:44;;;;;;;6.37;4.50;;;;;;;18.01;100.00;98628.28;10412802;28;20196;-85
2021/07/14 11:58:03;;;;;;;4.53;4.23;;;;;;;17.99;100.00;98630.75;10410168;28;20286;-87
2021/07/14 12:03:22;;;;;;;4.60;4.30;;;;;;;18.15;100.00;98633.25;10409928;28;20445;-86
2021/07/14 12:08:41;;;;;;;4.07;3.30;;;;;;;18.22;100.00;98621.88;10412274;28;20180;-86
2021/07/14 12:14:01;;;;;;;4.07;3.80;;;;;;;18.41;100.00;98612.31;10409989;28;20568;-86
2021/07/14 12:19:25;;;;;;;3.90;3.70;;;;;;;18.75;100.00;98598.84;10413527;28;20207;-87
2021/07/14 12:24:51;;;;;;;3.17;2.97;;;;;;;18.55;100.00;98592.97;10409636;28;20571;-85
2021/07/14 12:30:17;;;;;;;3.40;3.20;;;;;;;18.41;100.00;98588.78;10435769;28;20223;-82
2021/07/14 12:35:39;;;;;;;4.10;3.80;;;;;;;18.96;100.00;98581.97;10437262;28;20215;-81
2021/07/14 12:41:01;;;;;;;3.80;3.60;;;;;;;20.38;97.79;98576.28;10445395;28;20172;-80
2021/07/14 12:46:24;;;;;;;3.10;2.90;;;;;;;20.83;92.83;98573.94;10437254;28;20551;-84
2021/07/14 12:52:19;;;;;;;3.30;3.10;;;;;;;21.32;85.60;98572.03;10429593;28;20175;-79
2021/07/14 12:57:38;;;;;;;2.80;2.53;;;;;;;21.33;83.38;98576.38;10446634;28;20657;-82
2021/07/14 13:03:02;;;;;;;2.40;2.30;;;;;;;21.23;80.45;98572.13;10453479;28;20176;-78
2021/07/14 13:08:26;;;;;;;2.70;2.50;;;;;;;20.42;86.21;98574.88;10456447;28;20191;-78
2021/07/14 13:13:47;;;;;;;2.40;2.13;;;;;;;20.75;84.58;98578.31;10453826;28;20195;-80
2021/07/14 13:19:16;;;;;;;2.40;2.20;;;;;;;21.26;82.03;98578.78;10448454;28;20192;-80
2021/07/14 13:24:35;;;;;;;2.70;2.60;;;;;;;22.12;76.41;98584.28;10460679;28;20195;-84
2021/07/14 13:29:54;;;;;;;2.27;2.17;;;;;;;21.85;77.05;98587.44;10437882;28;20212;-79
2021/07/14 13:35:18;;;;;;;1.90;1.80;;;;;;;21.10;78.31;98593.25;10461813;28;20224;-80
2021/07/14 13:40:38;;;;;;;2.80;2.60;;;;;;;20.94;83.31;98593.69;10462446;28;20179;-79
2021/07/14 13:45:57;;;;;;;2.90;2.80;;;;;;;21.49;79.11;98587.06;10459350;28;20197;-78
2021/07/14 13:51:38;;;;;;;2.63;2.53;;;;;;;20.85;79.88;98590.22;10446191;28;20179;-78
2021/07/14 13:56:59;;;;;;;2.70;2.60;;;;;;;20.84;81.11;98597.81;10459970;28;20211;-78
2021/07/14 14:02:32;;;;;;;2.87;2.67;;;;;;;20.77;79.54;98586.25;10461323;28;20179;-81
2021/07/14 14:07:51;;;;;;;2.90;2.70;;;;;;;20.25;82.71;98607.25;10446085;28;20180;-81
2021/07/14 14:13:27;;;;;;;3.87;3.57;;;;;;;21.20;79.20;98597.50;10459558;28;20565;-79
2021/07/14 14:18:47;;;;;;;2.90;2.40;;;;;;;22.12;75.92;98595.47;10427085;28;20215;-84
2021/07/14 14:24:12;;;;;;;3.67;2.30;;;;;;;21.96;72.79;98596.00;10420188;28;20176;-82
2021/07/14 14:29:34;;;;;;;2.00;1.90;;;;;;;21.39;75.38;98590.47;10402297;28;20224;-82
2021/07/14 14:34:53;;;;;;;2.53;2.33;;;;;;;21.09;79.93;98588.88;10418727;28;20203;-81
2021/07/14 14:40:12;;;;;;;2.40;2.30;;;;;;;21.67;78.78;98588.91;10418795;28;20244;-83
2021/07/14 14:45:31;;;;;;;2.60;2.30;;;;;;;22.18;75.32;98582.31;10425555;28;20176;-81
2021/07/14 14:50:53;;;;;;;2.20;2.10;;;;;;;22.36;70.94;98589.72;10444452;28;20207;-83
2021/07/14 14:56:13;;;;;;;2.17;2.07;;;;;;;23.10;66.67;98573.53;10457605;28;21106;-80
2021/07/14 15:01:32;;;;;;;2.10;2.00;;;;;;;23.98;65.69;98575.09;10448436;28;20183;-81
2021/07/14 15:06:51;;;;;;;2.00;1.90;;;;;;;24.45;63.73;98588.41;10445721;28;20179;-80
2021/07/14 15:12:10;;;;;;;2.23;2.00;;;;;;;25.23;58.33;98588.94;10442310;28;20634;-83
2021/07/14 15:17:31;;;;;;;2.30;2.13;;;;;;;23.96;63.34;98594.47;10457785;28;20685;-78
2021/07/14 15:22:50;;;;;;;2.20;2.00;;;;;;;23.53;65.97;98587.22;10458196;28;20530;-82
2021/07/14 15:33:48;;;;;;;2.40;2.20;;;;;;;22.61;70.64;98592.59;10457058;28;20184;-81
2021/07/14 15:39:09;;;;;;;2.83;2.63;;;;;;;21.91;71.36;98595.94;10457666;28;20622;-84
2021/07/14 15:44:28;;;;;;;2.60;1.87;;;;;;;22.15;70.68;98602.91;10454864;28;20187;-80
2021/07/14 15:49:47;;;;;;;1.87;1.73;;;;;;;21.43;75.98;98593.81;10457230;28;20254;-82
2021/07/14 15:55:07;;;;;;;2.10;2.00;;;;;;;20.79;79.09;98592.91;10455060;28;20260;-82
2021/07/14 16:00:26;;;;;;;2.50;2.30;;;;;;;21.03;77.32;98600.00;10455664;28;20621;-84
2021/07/14 16:05:46;;;;;;;2.50;2.30;;;;;;;21.91;75.14;98596.69;10456733;28;20171;-84
2021/07/14 16:11:05;;;;;;;2.57;2.30;;;;;;;21.48;75.04;98609.97;10453393;28;20574;-82
2021/07/14 16:16:25;;;;;;;2.53;2.43;;;;;;;21.32;75.53;98596.44;10456129;28;20661;-78
2021/07/14 16:21:44;;;;;;;2.63;2.53;;;;;;;22.09;72.56;98596.44;10454404;28;20207;-80
2021/07/14 16:27:03;;;;;;;2.90;2.37;;;;;;;21.49;74.86;98595.47;10454869;28;20254;-78
2021/07/14 16:32:22;;;;;;;2.70;2.50;;;;;;;20.95;78.53;98595.25;10455926;28;20163;-78
2021/07/14 16:37:41;;;;;;;2.87;2.70;;;;;;;21.62;74.12;98593.16;10458995;28;20195;-79
2021/07/14 16:43:00;;;;;;;2.60;2.40;;;;;;;21.88;73.05;98592.06;10463126;28;20175;-79
2021/07/14 16:48:19;;;;;;;2.00;1.90;;;;;;;21.76;70.53;98590.34;10460254;28;20188;-80
2021/07/14 16:53:38;;;;;;;1.87;1.67;;;;;;;21.38;69.88;98586.88;10445408;28;20175;-83
2021/07/14 16:58:57;;;;;;;2.83;2.03;;;;;;;20.85;73.40;98588.19;10462537;28;20187;-79
2021/07/14 17:04:16;;;;;;;2.13;1.93;;;;;;;20.76;75.87;98591.06;10463663;28;20201;-83
2021/07/14 17:09:35;;;;;;;2.27;2.17;;;;;;;20.68;75.61;98581.47;10463293;28;20565;-80
2021/07/14 17:14:54;;;;;;;3.67;2.33;;;;;;;20.71;76.53;98568.59;10461836;28;20215;-78
2021/07/14 17:20:14;;;;;;;2.93;1.90;;;;;;;20.65;79.03;98574.06;10440118;28;20200;-78
2021/07/14 17:25:33;;;;;;;2.30;2.10;;;;;;;21.55;74.67;98576.00;10422683;28;20184;-77
2021/07/14 17:30:52;;;;;;;2.10;1.97;;;;;;;21.83;72.09;98577.97;10419400;28;20220;-80
2021/07/14 17:36:11;;;;;;;1.90;1.80;;;;;;;24.04;64.59;98575.09;10405844;28;20599;-82
2021/07/14 17:41:30;;;;;;;6.23;3.30;;;;;;;23.23;65.69;98573.16;10419700;28;20222;-79
2021/07/14 17:46:49;;;;;;;2.13;2.00;;;;;;;23.50;63.94;98582.56;10420814;28;20542;-78
2021/07/14 17:52:09;;;;;;;2.23;2.03;;;;;;;22.76;67.72;98598.91;10406072;28;20188;-78
2021/07/14 17:57:28;;;;;;;2.83;2.13;;;;;;;21.08;77.00;98604.16;10418607;28;20337;-78
2021/07/14 18:02:47;;;;;;;2.80;2.60;;;;;;;20.42;80.54;98597.22;10420131;28;20561;-78
2021/07/14 18:08:07;;;;;;;2.77;2.63;;;;;;;20.14;82.79;98590.25;10419860;28;20557;-78
2021/07/14 18:13:26;;;;;;;3.50;2.70;;;;;;;19.95;83.83;98595.66;10418685;28;20247;-79
2021/07/14 18:18:45;;;;;;;2.13;2.03;;;;;;;19.97;84.97;98590.34;10419246;28;20212;-85
2021/07/14 18:24:06;;;;;;;2.67;2.47;;;;;;;19.91;84.77;98584.59;10448422;28;20179;-84
2021/07/14 18:29:25;;;;;;;2.70;2.50;;;;;;;19.75;86.10;98590.56;10458644;28;20230;-84
2021/07/14 18:34:45;;;;;;;2.73;2.63;;;;;;;19.56;87.81;98579.97;10450224;28;20238;-80
2021/07/14 18:40:06;;;;;;;2.93;2.83;;;;;;;19.46;89.79;98556.16;10418959;28;20545;-78
2021/07/14 18:45:25;;;;;;;5.00;3.30;;;;;;;19.11;92.96;98543.84;10424551;28;20175;-79
2021/07/14 18:50:46;;;;;;;3.67;3.47;;;;;;;18.90;95.07;98546.81;10444416;28;20167;-79
2021/07/14 18:56:05;;;;;;;3.40;3.20;;;;;;;18.82;96.24;98548.38;10428052;28;20296;-79
2021/07/14 19:01:24;;;;;;;3.83;3.63;;;;;;;18.68;97.54;98562.94;10416973;28;20263;-79
2021/07/14 19:06:43;;;;;;;5.93;4.03;;;;;;;18.60;98.25;98561.72;10417580;28;20646;-77
2021/07/14 19:12:02;;;;;;;3.67;3.47;;;;;;;18.59;99.95;98563.72;10416192;28;20180;-80
2021/07/14 19:17:21;;;;;;;3.97;3.60;;;;;;;18.34;100.00;98576.38;10416629;28;20674;-78
2021/07/14 19:22:40;;;;;;;4.50;4.13;;;;;;;18.27;100.00;98587.81;10417311;28;20172;-80
2021/07/14 19:28:00;;;;;;;3.83;3.63;;;;;;;18.15;100.00;98580.38;10425168;28;20677;-80
2021/07/14 19:33:20;;;;;;;4.00;3.80;;;;;;;18.02;100.00;98582.50;10457988;28;20625;-82
2021/07/14 19:38:39;;;;;;;3.63;3.43;;;;;;;17.88;100.00;98594.22;10457173;28;20215;-84
2021/07/14 19:43:59;;;;;;;4.63;4.23;;;;;;;17.71;100.00;98590.13;10456232;28;20167;-80
2021/07/14 19:49:18;;;;;;;4.17;3.97;;;;;;;17.48;100.00;98604.56;10457334;28;20179;-78
2021/07/14 19:54:37;;;;;;;3.13;2.93;;;;;;;17.40;100.00;98597.72;10427412;28;20203;-79
2021/07/14 19:59:56;;;;;;;3.53;3.33;;;;;;;17.39;100.00;98584.28;10414487;28;20208;-78
2021/07/14 20:05:15;;;;;;;4.13;3.83;;;;;;;17.25;100.00;98591.13;10415400;28;20179;-85
2021/07/14 20:10:34;;;;;;;3.67;3.47;;;;;;;17.30;100.00;98582.22;10415343;28;20188;-81
2021/07/14 20:15:54;;;;;;;3.27;3.07;;;;;;;17.16;100.00;98579.97;10419096;28;20258;-81
2021/07/14 20:21:13;;;;;;;4.20;3.20;;;;;;;17.02;100.00;98582.50;10456384;28;20179;-80
2021/07/14 20:26:32;;;;;;;9.63;3.97;;;;;;;16.86;100.00;98589.03;10439806;28;20246;-78
2021/07/14 20:31:51;;;;;;;7.70;4.13;;;;;;;16.70;100.00;98599.56;10373956;28;20201;-79
2021/07/14 20:37:11;;;;;;;5.07;4.67;;;;;;;16.69;100.00;98586.13;10373488;28;20662;-79
2021/07/14 20:42:30;;;;;;;4.80;4.50;;;;;;;16.59;100.00;98598.38;10372560;28;20176;-78
2021/07/14 20:47:49;;;;;;;4.67;4.33;;;;;;;16.47;100.00;98602.00;10351364;28;20568;-78
2021/07/14 20:53:08;;;;;;;4.73;4.50;;;;;;;16.17;100.00;98594.25;10333095;28;20178;-77
2021/07/14 20:58:27;;;;;;;4.60;4.20;;;;;;;16.04;100.00;98596.31;10331268;28;20209;-78
2021/07/14 21:03:46;;;;;;;4.23;4.03;;;;;;;16.01;100.00;98602.72;10332789;28;20545;-78
2021/07/14 21:09:05;;;;;;;5.00;4.60;;;;;;;15.98;100.00;98609.19;10332661;28;20636;-77
2021/07/14 21:14:24;;;;;;;5.57;5.10;;;;;;;15.95;100.00;98610.06;10331439;28;20198;-78
2021/07/14 21:19:43;;;;;;;4.27;3.97;;;;;;;15.82;100.00;98616.84;10332459;28;20668;-79
2021/07/14 21:25:05;;;;;;;6.70;3.80;;;;;;;15.71;100.00;98617.19;10335020;28;20216;-80
2021/07/14 21:30:26;;;;;;;4.20;3.80;;;;;;;15.69;100.00;98624.41;10429572;28;20579;-79
2021/07/14 21:35:45;;;;;;;23.33;12.83;;;;;;;15.64;100.00;98624.94;10461853;28;20211;-78
2021/07/14 21:41:05;;;;;;;4.80;4.50;;;;;;;15.60;100.00;98635.38;10461067;28;20258;-77
2021/07/14 21:46:24;;;;;;;4.20;4.00;;;;;;;15.59;100.00;98642.91;10447106;28;20175;-78
2021/07/14 21:51:43;;;;;;;5.00;3.90;;;;;;;15.39;100.00;98633.25;10461969;28;20172;-77
2021/07/14 21:57:03;;;;;;;4.63;4.20;;;;;;;15.22;100.00;98643.63;10460083;28;20281;-79
2021/07/14 22:02:22;;;;;;;7.63;4.67;;;;;;;15.14;100.00;98655.38;10437841;28;20180;-77
2021/07/14 22:07:42;;;;;;;5.23;4.93;;;;;;;14.93;100.00;98661.50;10461327;28;20195;-77
2021/07/14 22:13:02;;;;;;;5.30;4.90;;;;;;;14.88;100.00;98656.50;10459854;28;20233;-77
2021/07/14 22:18:22;;;;;;;6.17;5.70;;;;;;;14.87;100.00;98666.00;10460151;28;20207;-77
2021/07/14 22:23:49;;;;;;;6.00;5.60;;;;;;;14.84;100.00;98663.34;10460639;28;20171;-77
2021/07/14 22:29:10;;;;;;;5.50;5.20;;;;;;;15.02;100.00;98656.09;10458736;28;20291;-76
2021/07/14 22:34:29;;;;;;;5.57;5.17;;;;;;;14.97;100.00;98661.38;10419033;28;20196;-78
2021/07/14 22:39:48;;;;;;;5.77;5.47;;;;;;;14.97;100.00;98651.09;10418869;28;20184;-77
2021/07/14 22:45:08;;;;;;;5.47;5.10;;;;;;;15.19;100.00;98627.09;10417460;28;20180;-78
2021/07/14 22:50:28;;;;;;;6.03;5.50;;;;;;;15.03;100.00;98627.19;10418586;28;20180;-78
2021/07/14 22:55:47;;;;;;;6.10;5.60;;;;;;;14.87;100.00;98640.28;10417870;28;20200;-79
2021/07/14 23:01:06;;;;;;;6.33;5.93;;;;;;;14.86;100.00;98619.38;10414341;28;20708;-77
2021/07/14 23:06:26;;;;;;;5.93;5.43;;;;;;;14.71;100.00;98626.50;10460100;28;20657;-82
2021/07/14 23:11:45;;;;;;;5.83;5.37;;;;;;;14.69;100.00;98626.19;10457607;28;20175;-83
2021/07/14 23:17:03;;;;;;;5.90;5.43;;;;;;;14.49;100.00;98620.00;10458155;28;20302;-80
2021/07/14 23:22:22;;;;;;;4.90;4.70;;;;;;;14.42;100.00;98625.72;10458463;28;20692;-78
2021/07/14 23:27:43;;;;;;;6.40;5.73;;;;;;;14.40;100.00;98611.53;10456645;28;20242;-80
2021/07/14 23:33:03;;;;;;;5.37;5.07;;;;;;;14.32;100.00;98598.34;10437043;28;20638;-78
2021/07/14 23:38:22;;;;;;;5.13;4.83;;;;;;;14.23;100.00;98596.16;10415998;28;20207;-78
2021/07/14 23:43:41;;;;;;;4.73;4.43;;;;;;;14.22;100.00;98600.16;10400208;28;20172;-80
2021/07/14 23:49:00;;;;;;;8.10;5.00;;;;;;;14.15;100.00;98603.09;10415677;28;20184;-79
2021/07/14 23:54:19;;;;;;;7.13;5.00;;;;;;;14.27;100.00;98604.38;10415871;28;20172;-78
2021/07/14 23:59:38;;;;;;;5.70;5.30;;;;;;;14.27;100.00;98601.63;10401870;28;20559;-79
